Language selection

My Weather Profile Weather Topics  | 

Douglas Channel: Past 24 Hour Conditions

 

North Nomad - 46184

07:00 PM PST 24 January 2021Buoy position: 53.9N 138.85W
Disclaimer

This table is a summary of hourly weather conditions for the past 24 hours.
Please note that these observations might not always be representative of weather conditions over their associated marine area.

Date / Time
(PST)
Wind(knots) Wave height(m) Wave period(s) Pressure(kPa) Air tempC) Water tempC)
24 January 2021
19:00 WNW 25 6.5 14.0 101.1 5 6
18:00 WNW 23 gust 31 6.4 14.0 101.1 5 6
17:00 WNW 27 gust 31 5.8 12.0 101.1 5 6
16:00 WNW 25 gust 31 5.8 11.0 101.1 5 6
15:00 WNW 23 gust 29 6.0 12.0 101.1 5 6
14:00 WNW 25 gust 31 6.0 14.0 101.1 5 6
13:00 NW 19 gust 25 5.4 14.0 101.1 4 6
12:00 WNW 23 gust 29 5.6 12.0 101.1 4 6
11:00 W 23 gust 27 5.4 11.0 101.1 5 6
10:00 WNW 23 gust 31 5.4 12.0 101.1 5 6
9:00 WNW 22 gust 27 5.2 12.0 101.0 5 6
8:00 WNW 23 gust 31 4.7 12.0 101.0 5 6
7:00 WNW 22 gust 27 4.6 12.0 101.0 5 6
6:00 WNW 22 gust 27 4.8 11.0 101.0 4 6
5:00 W 22 gust 25 5.2 11.0 101.0 5 6
4:00 WNW 19 gust 25 4.9 10.0 101.0 5 6
3:00 W 22 gust 29 4.8 11.0 101.1 5 6
2:00 W 25 gust 31 4.9 9.0 101.1 6 6
1:00 W 25 N/A N/A 101.1 5 N/A
0:00 WNW 19 gust 25 4.3 10.0 101.2 5 6
23 January 2021
23:00 N/A N/A N/A N/A N/A N/A
22:00 W 25 gust 31 4.1 11.0 101.2 5 6
21:00 WNW 23 gust 29 4.4 9.0 101.3 5 6
20:00 W 25 gust 35 4.6 12.0 101.3 5 6
19:00 W 23 gust 31 4.6 9.0 101.3 5 6

Zoom-in to make a selection

Map of Pacific - North Coast marine weather areas Middle Nomad - 46004 South Nomad - 46036 Dixon Entrance Central - 46145 South Moresby - 46147 Nanakwa Shoal - 46181 North Hecate Strait - 46183 North Nomad - 46184 South Hecate Strait - 46185 West Sea Otter - 46204 West Dixon Entrance - 46205 East Dellwood - 46207 West Moresby - 46208 Sartine Island Cape St.James Kindakun Rocks Langara Island Masset Municipal Airport Rose Spit Sandspit Airport Bella Bella Airport Bella Coola Airport Bonilla Island Cathedral Point Cumshewa Island Grey Islet Holland Rock Lucy Islands Lightstation Prince Rupert Airport
Legend:
buoy Buoy
land station Land Station

Pacific - North Coast Area

Another Region

What we are doing

Features

Need to travel Alberta Highway 93?

Go prepared with Highway 93 forecasts. Highway regions are available in the Alberta text forecast bulletin between Lake Louise and Jasper. (Photo by: Natalie Anderson)

Date modified: